createdAt,value
2019-04-07T00:00:41.011Z,67.40
2019-04-07T00:03:06.949Z,67.56
2019-04-07T00:05:33.367Z,67.63
2019-04-07T00:07:59.421Z,68.00
2019-04-07T00:10:25.174Z,67.90
2019-04-07T00:12:50.912Z,68.52
2019-04-07T00:15:16.858Z,68.80
2019-04-07T00:17:43.189Z,69.21
2019-04-07T00:20:09.092Z,68.99
2019-04-07T00:22:35.183Z,68.85
2019-04-07T00:25:01.895Z,69.09
2019-04-07T00:27:28.307Z,69.00
2019-04-07T00:29:54.290Z,69.45
2019-04-07T00:32:20.135Z,70.10
2019-04-07T00:34:45.923Z,70.29
2019-04-07T00:37:11.721Z,69.98
2019-04-07T00:39:37.659Z,69.95
2019-04-07T00:42:03.863Z,70.40
2019-04-07T00:44:30.013Z,70.02
2019-04-07T00:46:55.794Z,69.73
2019-04-07T00:49:21.647Z,69.88
2019-04-07T00:51:48.507Z,69.96
2019-04-07T00:54:14.986Z,70.10
2019-04-07T00:56:41.197Z,69.91
2019-04-07T00:59:07.035Z,70.16
2019-04-07T01:01:32.852Z,70.18
2019-04-07T01:03:58.755Z,70.03
2019-04-07T01:06:25.049Z,70.19
2019-04-07T01:08:51.491Z,70.66
2019-04-07T01:11:19.013Z,70.42
2019-04-07T01:13:45.218Z,70.45
2019-04-07T01:16:10.951Z,70.01
2019-04-07T01:18:37.154Z,70.57
2019-04-07T01:21:03.732Z,70.81
2019-04-07T01:23:29.825Z,70.73
2019-04-07T01:25:55.933Z,70.79
2019-04-07T01:28:21.980Z,71.09
2019-04-07T01:30:47.965Z,70.79
2019-04-07T01:33:13.917Z,70.92
2019-04-07T01:35:47.062Z,70.64
2019-04-07T01:38:07.329Z,70.88
2019-04-07T01:40:33.186Z,71.00
2019-04-07T01:43:03.341Z,70.47
2019-04-07T01:45:39.675Z,70.44
2019-04-07T01:48:07.292Z,70.73
2019-04-07T01:50:37.498Z,70.75
2019-04-07T01:53:22.823Z,70.92
2019-04-07T01:56:05.586Z,71.57
2019-04-07T01:58:45.035Z,71.69
2019-04-07T02:01:28.455Z,71.55
2019-04-07T02:04:02.712Z,71.08
2019-04-07T02:06:30.990Z,71.17
2019-04-07T02:08:59.033Z,70.85
2019-04-07T02:11:32.868Z,71.42
2019-04-07T02:14:07.078Z,71.78
2019-04-07T02:16:51.558Z,72.05
2019-04-07T02:19:19.266Z,71.96
2019-04-07T02:21:47.293Z,71.99
2019-04-07T02:24:15.786Z,72.27
2019-04-07T02:26:43.549Z,72.29
2019-04-07T02:29:17.092Z,72.75
2019-04-07T02:31:45.103Z,72.81
2019-04-07T02:34:21.989Z,73.05
2019-04-07T02:37:06.619Z,72.28
2019-04-07T02:39:40.775Z,71.95
2019-04-07T02:42:08.857Z,72.13
2019-04-07T02:44:37.040Z,71.40
2019-04-07T02:47:08.222Z,71.74
2019-04-07T02:49:51.671Z,71.32
2019-04-07T02:52:20.258Z,70.59
2019-04-07T02:55:02.905Z,70.72
2019-04-07T02:57:47.568Z,70.65
2019-04-07T03:00:27.889Z,70.69
2019-04-07T03:03:08.794Z,71.22
2019-04-07T03:05:36.679Z,71.53
2019-04-07T03:08:04.425Z,70.97
2019-04-07T03:10:48.541Z,71.83
2019-04-07T03:13:19.216Z,71.51
2019-04-07T03:16:00.510Z,71.55
2019-04-07T03:18:29.249Z,71.35
2019-04-07T03:20:57.117Z,72.05
2019-04-07T03:23:30.659Z,71.59
2019-04-07T03:26:04.641Z,71.27
2019-04-07T03:28:38.519Z,71.67
2019-04-07T03:31:12.787Z,71.69
2019-04-07T03:33:54.419Z,71.52
2019-04-07T03:36:26.268Z,71.82
2019-04-07T03:38:55.806Z,71.33
2019-04-07T03:41:26.333Z,70.60
2019-04-07T03:43:57.084Z,70.36
2019-04-07T03:46:25.327Z,70.31
2019-04-07T03:48:53.662Z,69.84
2019-04-07T03:51:38.164Z,69.69
2019-04-07T03:54:08.984Z,69.56
2019-04-07T03:56:49.743Z,69.75
2019-04-07T03:59:35.315Z,69.46
2019-04-07T04:02:20.119Z,69.34
2019-04-07T04:04:57.565Z,69.89
2019-04-07T04:07:38.632Z,69.35
2019-04-07T04:10:24.660Z,69.87
2019-04-07T04:13:01.498Z,69.98
2019-04-07T04:15:29.814Z,69.61
2019-04-07T04:17:57.577Z,68.82
2019-04-07T04:20:23.959Z,68.21
2019-04-07T04:22:50.629Z,68.36
2019-04-07T04:25:17.187Z,69.03
2019-04-07T04:27:43.158Z,69.15
2019-04-07T04:30:10.282Z,69.93
2019-04-07T04:32:37.106Z,70.23
2019-04-07T04:35:06.691Z,70.54
2019-04-07T04:37:41.219Z,70.75
2019-04-07T04:40:00.433Z,70.79
2019-04-07T04:42:26.830Z,70.54
2019-04-07T04:44:52.878Z,70.19
2019-04-07T04:47:19.067Z,70.53
2019-04-07T04:49:44.993Z,70.36
2019-04-07T04:52:11.543Z,70.10
2019-04-07T04:54:37.330Z,70.05
2019-04-07T04:57:06.357Z,70.09
2019-04-07T04:59:31.247Z,69.80
2019-04-07T05:01:57.278Z,69.67
2019-04-07T05:04:23.268Z,69.38
2019-04-07T05:06:49.912Z,68.97
2019-04-07T05:09:15.714Z,69.12
2019-04-07T05:11:41.709Z,69.13
2019-04-07T05:14:08.851Z,68.19
2019-04-07T05:16:35.483Z,68.37
2019-04-07T05:19:02.630Z,68.00
2019-04-07T05:21:28.958Z,67.58
2019-04-07T05:23:54.972Z,67.79
2019-04-07T05:26:21.071Z,67.84
2019-04-07T05:28:47.150Z,67.95
2019-04-07T05:31:14.502Z,68.32
2019-04-07T05:33:40.970Z,67.09
2019-04-07T05:36:07.047Z,66.71
2019-04-07T05:38:32.836Z,66.45
2019-04-07T05:40:58.698Z,65.16
2019-04-07T05:43:25.192Z,64.38
2019-04-07T05:45:51.013Z,63.64
2019-04-07T05:48:19.470Z,64.00
2019-04-07T05:50:46.090Z,62.99
2019-04-07T05:53:14.605Z,63.14
2019-04-07T05:55:39.770Z,64.04
2019-04-07T05:58:08.169Z,62.94
2019-04-07T06:00:33.978Z,62.59
2019-04-07T06:03:04.258Z,61.92
2019-04-07T06:05:28.115Z,61.67
2019-04-07T06:07:53.936Z,62.02
2019-04-07T06:10:22.344Z,62.05
2019-04-07T06:12:48.300Z,61.69
2019-04-07T06:15:19.284Z,61.25
2019-04-07T06:17:43.578Z,61.21
2019-04-07T06:20:14.124Z,61.14
2019-04-07T06:22:37.114Z,60.18
2019-04-07T06:25:05.540Z,60.51
2019-04-07T06:27:31.471Z,60.39
2019-04-07T06:29:59.967Z,60.61
2019-04-07T06:32:25.593Z,60.00
2019-04-07T06:34:51.274Z,57.92
2019-04-07T06:37:17.628Z,58.87
2019-04-07T06:39:44.062Z,58.61
2019-04-07T06:42:09.930Z,57.55
2019-04-07T06:44:35.733Z,57.92
2019-04-07T06:47:09.371Z,54.21
2019-04-07T06:49:47.456Z,51.66
2019-04-07T06:52:27.972Z,51.77
2019-04-07T06:55:13.411Z,53.94
2019-04-07T06:57:56.131Z,54.23
2019-04-07T07:00:25.499Z,52.78
2019-04-07T07:03:05.351Z,52.06
2019-04-07T07:05:50.368Z,50.54
2019-04-07T07:08:24.636Z,51.60
2019-04-07T07:11:10.330Z,50.44
2019-04-07T07:13:43.146Z,50.94
2019-04-07T07:16:27.505Z,48.30
2019-04-07T07:19:11.688Z,43.18
2019-04-07T07:21:56.789Z,44.20
2019-04-07T07:24:25.254Z,48.98
2019-04-07T07:26:50.435Z,50.79
2019-04-07T07:29:17.158Z,50.07
2019-04-07T07:31:43.830Z,50.33
2019-04-07T07:34:11.068Z,50.13
2019-04-07T07:36:37.366Z,50.31
2019-04-07T07:39:10.334Z,51.52
2019-04-07T07:41:33.141Z,51.33
2019-04-07T07:44:02.636Z,52.44
2019-04-07T07:46:26.877Z,46.11
2019-04-07T07:48:57.021Z,45.04
2019-04-07T07:51:20.515Z,45.06
2019-04-07T07:53:46.188Z,45.15
2019-04-07T07:56:13.167Z,44.88
2019-04-07T07:58:39.567Z,46.61
2019-04-07T08:01:05.527Z,48.75
2019-04-07T08:03:31.510Z,49.67
2019-04-07T08:05:57.867Z,50.77
2019-04-07T08:08:23.988Z,50.62
2019-04-07T08:10:50.671Z,49.15
2019-04-07T08:13:16.857Z,48.37
2019-04-07T08:15:42.680Z,41.85
2019-04-07T08:18:09.638Z,42.22
2019-04-07T08:20:35.440Z,41.12
2019-04-07T08:23:01.536Z,40.92
2019-04-07T08:25:27.219Z,41.99
2019-04-07T08:27:53.127Z,43.25
2019-04-07T08:30:19.080Z,42.50
2019-04-07T08:32:45.408Z,42.31
2019-04-07T08:35:11.368Z,43.80
2019-04-07T08:37:37.174Z,44.88
2019-04-07T08:40:07.657Z,45.02
2019-04-07T08:42:33.605Z,41.11
2019-04-07T08:45:00.647Z,41.34
2019-04-07T08:47:26.648Z,40.90
2019-04-07T08:49:55.428Z,42.30
2019-04-07T08:52:20.002Z,41.88
2019-04-07T08:54:48.266Z,39.02
2019-04-07T08:57:14.091Z,38.37
2019-04-07T08:59:42.467Z,39.03
2019-04-07T09:02:07.664Z,35.98
2019-04-07T09:04:33.523Z,36.34
2019-04-07T09:07:01.596Z,36.94
2019-04-07T09:09:34.056Z,37.37
2019-04-07T09:11:57.255Z,36.21
2019-04-07T09:14:22.324Z,37.95
2019-04-07T09:17:05.152Z,39.52
2019-04-07T09:19:48.003Z,41.43
2019-04-07T09:22:22.144Z,40.34
2019-04-07T09:24:50.924Z,43.92
2019-04-07T09:27:23.277Z,43.84
2019-04-07T09:29:51.265Z,44.14
2019-04-07T09:32:25.354Z,43.69
2019-04-07T09:35:02.243Z,45.62
2019-04-07T09:37:33.247Z,46.16
2019-04-07T09:40:03.176Z,46.43
2019-04-07T09:42:47.307Z,46.96
2019-04-07T09:45:34.505Z,47.32
2019-04-07T09:48:21.148Z,48.34
2019-04-07T09:51:07.293Z,48.75
2019-04-07T09:53:50.372Z,49.03
2019-04-07T09:56:17.473Z,48.49
2019-04-07T09:58:54.612Z,48.55
2019-04-07T10:01:29.046Z,47.73
2019-04-07T10:04:11.972Z,47.81
2019-04-07T10:06:55.807Z,47.77
2019-04-07T10:09:23.498Z,47.01
2019-04-07T10:11:51.871Z,46.91
2019-04-07T10:14:22.986Z,46.08
2019-04-07T10:16:51.750Z,46.81
2019-04-07T10:19:36.317Z,48.33
2019-04-07T10:22:10.651Z,47.30
2019-04-07T10:24:54.801Z,49.22
2019-04-07T10:27:38.288Z,49.34
2019-04-07T10:30:19.996Z,48.19
2019-04-07T10:33:03.077Z,47.50
2019-04-07T10:35:47.771Z,46.92
2019-04-07T10:38:21.797Z,46.57
2019-04-07T10:40:52.234Z,47.67
2019-04-07T10:43:19.936Z,47.83
2019-04-07T10:46:05.846Z,48.96
2019-04-07T10:48:40.104Z,48.77
2019-04-07T10:51:17.462Z,48.62
2019-04-07T10:53:48.341Z,48.94
2019-04-07T10:56:16.365Z,49.57
2019-04-07T10:58:44.089Z,50.35
2019-04-07T11:01:26.752Z,50.36
2019-04-07T11:04:11.216Z,50.08
2019-04-07T11:06:45.059Z,49.08
2019-04-07T11:09:13.235Z,46.54
2019-04-07T11:11:41.217Z,45.99
2019-04-07T11:14:15.049Z,45.31
2019-04-07T11:16:52.522Z,47.25
2019-04-07T11:19:23.314Z,48.03
2019-04-07T11:22:07.880Z,47.36
2019-04-07T11:24:52.750Z,46.15
2019-04-07T11:27:26.688Z,45.25
2019-04-07T11:30:03.864Z,44.68
2019-04-07T11:32:37.557Z,45.08
2019-04-07T11:35:09.390Z,46.01
2019-04-07T11:37:46.049Z,46.54
2019-04-07T11:40:42.060Z,47.76
2019-04-07T11:43:10.754Z,47.55
2019-04-07T11:45:39.005Z,46.47
2019-04-07T11:48:10.059Z,45.20
2019-04-07T11:50:43.962Z,44.63
2019-04-07T11:53:11.670Z,44.13
2019-04-07T11:55:51.166Z,44.07
2019-04-07T11:58:35.721Z,44.04
2019-04-07T12:01:06.908Z,43.49
2019-04-07T12:03:52.587Z,42.79
2019-04-07T12:06:24.152Z,42.40
2019-04-07T12:08:52.416Z,42.83
2019-04-07T12:11:20.122Z,43.56
2019-04-07T12:13:47.964Z,42.93
2019-04-07T12:16:16.685Z,42.84
2019-04-07T12:19:01.234Z,42.60
2019-04-07T12:21:29.744Z,43.34
2019-04-07T12:24:03.560Z,42.40
2019-04-07T12:26:31.561Z,41.51
2019-04-07T12:28:59.319Z,41.45
2019-04-07T12:31:42.358Z,40.81
2019-04-07T12:34:14.392Z,41.46
2019-04-07T12:37:02.430Z,40.03
2019-04-07T12:39:28.878Z,40.21
2019-04-07T12:43:32.841Z,41.19
2019-04-07T12:46:01.254Z,41.87
2019-04-07T12:48:44.486Z,43.08
2019-04-07T12:51:12.457Z,42.00
2019-04-07T12:53:43.393Z,40.21
2019-04-07T12:56:14.074Z,40.80
2019-04-07T12:58:59.092Z,39.16
2019-04-07T13:01:33.637Z,36.82
2019-04-07T13:04:01.782Z,37.04
2019-04-07T13:06:37.603Z,36.95
2019-04-07T13:09:07.182Z,38.32
2019-04-07T13:11:38.674Z,37.16
2019-04-07T13:14:10.915Z,29.52
2019-04-07T13:16:39.190Z,27.16
2019-04-07T13:19:09.591Z,24.66
2019-04-07T13:21:37.185Z,23.72
2019-04-07T13:24:10.958Z,22.81
2019-04-07T13:26:37.819Z,23.94
2019-04-07T13:29:08.323Z,28.78
2019-04-07T13:31:36.444Z,31.68
2019-04-07T13:34:13.477Z,32.85
2019-04-07T13:36:41.870Z,28.56
2019-04-07T13:39:19.455Z,33.47
2019-04-07T13:42:04.219Z,32.32
2019-04-07T13:44:50.077Z,32.58
2019-04-07T13:47:23.927Z,34.88
2019-04-07T13:50:00.029Z,35.18
2019-04-07T13:52:34.344Z,35.54
2019-04-07T13:55:07.517Z,37.75
2019-04-07T13:57:57.701Z,35.64
2019-04-07T14:00:26.329Z,35.46
2019-04-07T14:03:00.329Z,34.55
2019-04-07T14:05:44.818Z,35.61
2019-04-07T14:08:31.015Z,31.95
2019-04-07T14:11:02.525Z,31.95
2019-04-07T14:13:31.126Z,31.71
2019-04-07T14:16:02.921Z,33.48
2019-04-07T14:18:36.755Z,35.53
2019-04-07T14:21:07.715Z,36.68
2019-04-07T14:23:35.573Z,37.32
2019-04-07T14:26:06.747Z,38.50
2019-04-07T14:28:34.674Z,38.75
2019-04-07T14:31:11.032Z,39.15
2019-04-07T14:33:55.649Z,40.39
2019-04-07T14:36:32.829Z,40.73
2019-04-07T14:39:06.634Z,40.90
2019-04-07T14:42:00.957Z,40.48
2019-04-07T14:44:41.204Z,40.75
2019-04-07T14:47:14.985Z,40.64
2019-04-07T14:49:59.529Z,40.90
2019-04-07T14:52:39.417Z,41.29
2019-04-07T14:55:07.583Z,41.61
2019-04-07T14:57:41.663Z,42.06
2019-04-07T15:00:10.890Z,49.73
2019-04-07T15:02:37.155Z,56.59
2019-04-07T15:05:25.216Z,58.41
2019-04-07T15:08:00.060Z,59.21
2019-04-07T15:10:27.960Z,60.24
2019-04-07T15:13:05.325Z,60.96
2019-04-07T15:15:32.399Z,61.35
2019-04-07T15:17:58.760Z,62.50
2019-04-07T15:20:25.096Z,63.26
2019-04-07T15:22:51.726Z,64.37
2019-04-07T15:25:18.386Z,64.16
2019-04-07T15:27:44.567Z,65.62
2019-04-07T15:30:15.331Z,65.40
2019-04-07T15:32:39.449Z,64.60
2019-04-07T15:35:06.302Z,65.28
2019-04-07T15:37:32.546Z,66.07
2019-04-07T15:40:00.945Z,66.05
2019-04-07T15:42:35.871Z,66.63
2019-04-07T15:44:54.073Z,66.45
2019-04-07T15:47:21.098Z,66.69
2019-04-07T15:49:48.466Z,67.36
2019-04-07T15:52:14.511Z,66.61
2019-04-07T15:54:40.413Z,66.75
2019-04-07T15:57:06.312Z,66.25
2019-04-07T15:59:33.043Z,68.73
2019-04-07T16:01:58.947Z,69.51
2019-04-07T16:04:28.263Z,68.20
2019-04-07T16:06:52.862Z,68.02
2019-04-07T16:09:33.257Z,68.56
2019-04-07T16:11:49.227Z,69.68
2019-04-07T16:14:15.064Z,69.18
2019-04-07T16:16:42.626Z,71.13
2019-04-07T16:19:11.313Z,71.95
2019-04-07T16:21:39.333Z,71.79
2019-04-07T16:24:06.256Z,71.64
2019-04-07T16:26:35.820Z,73.21
2019-04-07T16:29:01.195Z,73.03
2019-04-07T16:31:27.423Z,73.94
2019-04-07T16:33:54.103Z,72.46
2019-04-07T16:36:24.557Z,71.88
2019-04-07T16:38:48.648Z,71.79
2019-04-07T16:41:15.039Z,70.86
2019-04-07T16:43:41.975Z,72.14
2019-04-07T16:46:08.857Z,72.27
2019-04-07T16:48:38.571Z,70.97
2019-04-07T16:51:03.330Z,70.90
2019-04-07T16:53:30.950Z,71.94
2019-04-07T16:55:57.542Z,71.95
2019-04-07T16:58:24.337Z,72.83
2019-04-07T17:00:50.692Z,73.09
2019-04-07T17:03:17.308Z,73.78
2019-04-07T17:05:43.320Z,74.54
2019-04-07T17:08:09.359Z,74.11
2019-04-07T17:10:35.482Z,73.70
2019-04-07T17:13:09.242Z,72.99
2019-04-07T17:15:29.615Z,73.41
2019-04-07T17:17:55.903Z,73.19
2019-04-07T17:20:22.966Z,74.37
2019-04-07T17:22:49.923Z,73.23
2019-04-07T17:25:15.998Z,73.30
2019-04-07T17:27:42.542Z,72.99
2019-04-07T17:30:13.602Z,73.16
2019-04-07T17:32:40.326Z,73.39
2019-04-07T17:35:09.372Z,73.45
2019-04-07T17:37:36.294Z,72.15
2019-04-07T17:40:11.358Z,71.93
2019-04-07T17:42:35.488Z,72.16
2019-04-07T17:45:05.945Z,72.55
2019-04-07T17:47:51.521Z,72.02
2019-04-07T17:50:36.902Z,72.61
2019-04-07T17:53:11.665Z,73.18
2019-04-07T17:55:57.252Z,72.76
2019-04-07T17:58:42.503Z,72.80
2019-04-07T18:01:13.883Z,73.71
2019-04-07T18:04:00.656Z,74.98
2019-04-07T18:06:34.607Z,75.38
2019-04-07T18:09:21.379Z,75.32
2019-04-07T18:12:11.639Z,75.85
2019-04-07T18:14:56.682Z,76.14
2019-04-07T18:17:38.022Z,76.09
2019-04-07T18:20:10.784Z,77.05
2019-04-07T18:22:51.654Z,76.75
2019-04-07T18:25:24.003Z,76.86
2019-04-07T18:27:53.286Z,76.72
2019-04-07T18:30:38.507Z,76.02
2019-04-07T18:33:06.635Z,76.12
2019-04-07T18:35:34.779Z,75.53
2019-04-07T18:38:15.012Z,76.20
2019-04-07T18:41:00.999Z,76.79
2019-04-07T18:43:30.120Z,76.75
2019-04-07T18:46:01.096Z,77.29
2019-04-07T18:48:29.026Z,77.79
2019-04-07T18:51:03.062Z,77.91
2019-04-07T18:53:48.560Z,78.35
2019-04-07T18:56:22.726Z,78.91
2019-04-07T18:58:53.208Z,78.07
2019-04-07T19:01:33.140Z,76.91
2019-04-07T19:04:01.161Z,77.11
2019-04-07T19:06:32.014Z,76.63
2019-04-07T19:09:02.545Z,76.89
2019-04-07T19:11:36.302Z,76.84
2019-04-07T19:14:24.528Z,76.95
2019-04-07T19:16:34.200Z,77.20
2019-04-07T19:19:19.265Z,77.30
2019-04-07T19:21:59.345Z,77.66
2019-04-07T19:24:41.632Z,77.91
2019-04-07T19:27:17.470Z,78.48
2019-04-07T19:29:45.888Z,78.23
2019-04-07T19:32:23.520Z,78.61
2019-04-07T19:35:02.655Z,78.93
2019-04-07T19:37:40.103Z,78.92
2019-04-07T19:40:08.313Z,78.78
2019-04-07T19:42:52.070Z,78.18
2019-04-07T19:45:22.790Z,77.64
2019-04-07T19:48:09.050Z,77.44
2019-04-07T19:50:37.028Z,77.19
2019-04-07T19:53:26.397Z,77.46
2019-04-07T19:56:08.719Z,77.71
2019-04-07T19:58:55.680Z,77.41
2019-04-07T20:01:35.790Z,77.25
2019-04-07T20:04:10.990Z,77.11
2019-04-07T20:06:55.455Z,76.85
2019-04-07T20:09:44.124Z,76.79
2019-04-07T20:12:08.586Z,76.61
2019-04-07T20:15:01.460Z,76.75
2019-04-07T20:17:31.001Z,76.21
2019-04-07T20:20:08.802Z,76.09
2019-04-07T20:22:49.422Z,75.94
2019-04-07T20:25:29.277Z,75.58
2019-04-07T20:27:59.343Z,75.94
2019-04-07T20:30:39.610Z,75.70
2019-04-07T20:33:13.451Z,76.33
2019-04-07T20:35:50.774Z,76.11
2019-04-07T20:38:19.250Z,76.13
2019-04-07T20:40:47.864Z,75.59
2019-04-07T20:43:21.729Z,75.21
2019-04-07T20:45:50.060Z,75.45
2019-04-07T20:48:23.923Z,75.65
2019-04-07T20:50:52.900Z,75.61
2019-04-07T20:53:33.693Z,75.29
2019-04-07T20:56:14.467Z,75.18
2019-04-07T20:58:49.601Z,74.73
2019-04-07T21:01:16.635Z,75.18
2019-04-07T21:03:47.553Z,75.38
2019-04-07T21:06:29.925Z,75.71
2019-04-07T21:09:01.459Z,75.89
2019-04-07T21:11:42.821Z,76.23
2019-04-07T21:14:15.523Z,76.63
2019-04-07T21:16:57.891Z,77.15
2019-04-07T21:19:42.093Z,77.68
2019-04-07T21:22:18.953Z,77.83
2019-04-07T21:24:58.866Z,78.07
2019-04-07T21:27:34.814Z,77.82
2019-04-07T21:30:08.667Z,77.92
2019-04-07T21:32:39.885Z,77.69
2019-04-07T21:35:08.685Z,77.88
2019-04-07T21:37:36.492Z,77.82
2019-04-07T21:40:08.692Z,77.64
2019-04-07T21:42:54.174Z,77.72
2019-04-07T21:45:39.889Z,77.89
2019-04-07T21:48:11.839Z,77.29
2019-04-07T21:50:48.566Z,77.95
2019-04-07T21:53:34.707Z,78.01
2019-04-07T21:56:11.343Z,78.01
2019-04-07T21:58:38.402Z,78.26
2019-04-07T22:01:21.142Z,78.48
2019-04-07T22:03:55.056Z,78.26
2019-04-07T22:06:23.084Z,78.88
2019-04-07T22:08:58.053Z,78.23
2019-04-07T22:11:28.114Z,78.88
2019-04-07T22:13:53.387Z,78.53
2019-04-07T22:16:22.098Z,78.72
2019-04-07T22:18:47.149Z,78.84
2019-04-07T22:21:13.801Z,79.22
2019-04-07T22:23:40.172Z,79.55
2019-04-07T22:26:09.511Z,79.29
2019-04-07T22:28:34.131Z,78.50
2019-04-07T22:31:00.045Z,78.46
2019-04-07T22:33:29.713Z,78.50
2019-04-07T22:35:53.887Z,78.75
2019-04-07T22:38:23.107Z,78.15
2019-04-07T22:40:47.736Z,78.35
2019-04-07T22:43:16.670Z,78.57
2019-04-07T22:45:52.756Z,78.63
2019-04-07T22:48:09.980Z,78.78
2019-04-07T22:50:38.228Z,79.13
2019-04-07T22:53:03.855Z,79.17
2019-04-07T22:55:29.686Z,78.68
2019-04-07T22:57:55.789Z,78.77
2019-04-07T23:00:25.397Z,78.51
2019-04-07T23:02:52.045Z,78.55
2019-04-07T23:05:19.083Z,78.54
2019-04-07T23:07:45.929Z,78.57
2019-04-07T23:10:12.238Z,78.27
2019-04-07T23:12:38.222Z,77.60
2019-04-07T23:15:05.744Z,78.21
2019-04-07T23:17:32.229Z,78.67
2019-04-07T23:19:58.860Z,78.87
2019-04-07T23:22:25.633Z,78.78
2019-04-07T23:24:51.785Z,78.48
2019-04-07T23:27:18.172Z,78.53
2019-04-07T23:29:44.389Z,78.83
2019-04-07T23:32:10.506Z,79.45
2019-04-07T23:34:36.348Z,79.58
2019-04-07T23:37:03.640Z,79.58
2019-04-07T23:39:29.658Z,79.33
2019-04-07T23:41:55.565Z,79.89
2019-04-07T23:44:21.512Z,79.47
2019-04-07T23:46:47.715Z,78.47
2019-04-07T23:49:13.727Z,78.79
2019-04-07T23:51:39.673Z,79.38
2019-04-07T23:54:09.281Z,79.69
2019-04-07T23:56:35.834Z,78.94
2019-04-07T23:59:02.585Z,79.02
